createdAt,value
2017-10-09T00:00:09.855Z,0.00
2017-10-09T00:01:09.849Z,0.00
2017-10-09T00:02:09.834Z,0.00
2017-10-09T00:03:09.822Z,0.00
2017-10-09T00:04:09.811Z,0.00
2017-10-09T00:05:09.804Z,0.00
2017-10-09T00:06:09.793Z,0.00
2017-10-09T00:07:09.780Z,0.00
2017-10-09T00:08:09.767Z,0.00
2017-10-09T00:09:09.760Z,0.00
2017-10-09T00:10:09.747Z,0.00
2017-10-09T00:11:09.738Z,0.00
2017-10-09T00:12:09.726Z,0.00
2017-10-09T00:13:09.715Z,0.00
2017-10-09T00:14:09.703Z,0.00
2017-10-09T00:15:09.693Z,0.00
2017-10-09T00:16:09.682Z,0.00
2017-10-09T00:17:09.672Z,0.00
2017-10-09T00:18:09.661Z,0.00
2017-10-09T00:19:09.659Z,0.00
2017-10-09T00:20:09.637Z,0.00
2017-10-09T00:21:09.627Z,0.00
2017-10-09T00:22:09.617Z,0.00
2017-10-09T00:23:09.604Z,0.00
2017-10-09T00:24:09.597Z,0.00
2017-10-09T00:25:09.582Z,0.00
2017-10-09T00:26:09.576Z,0.00
2017-10-09T00:27:09.561Z,0.00
2017-10-09T00:28:09.549Z,0.00
2017-10-09T00:29:09.538Z,0.00
2017-10-09T00:30:09.532Z,0.00
2017-10-09T00:31:09.517Z,0.00
2017-10-09T00:32:09.510Z,0.00
2017-10-09T00:33:09.495Z,0.00
2017-10-09T00:34:09.488Z,0.00
2017-10-09T00:35:09.474Z,0.00
2017-10-09T00:36:09.461Z,0.00
2017-10-09T00:37:09.453Z,0.00
2017-10-09T00:38:09.445Z,0.00
2017-10-09T00:39:09.430Z,0.00
2017-10-09T00:40:09.438Z,0.00
2017-10-09T00:41:09.408Z,0.00
2017-10-09T00:42:09.396Z,0.00
2017-10-09T00:43:09.388Z,0.00
2017-10-09T00:44:09.374Z,0.00
2017-10-09T00:45:09.362Z,0.00
2017-10-09T00:46:09.352Z,0.00
2017-10-09T00:47:09.348Z,0.00
2017-10-09T00:48:09.327Z,0.00
2017-10-09T00:49:09.318Z,0.00
2017-10-09T00:50:09.305Z,0.00
2017-10-09T00:51:09.296Z,0.00
2017-10-09T00:52:09.283Z,0.00
2017-10-09T00:53:09.275Z,0.00
2017-10-09T00:54:09.263Z,0.00
2017-10-09T00:55:09.254Z,0.00
2017-10-09T00:56:09.244Z,0.00
2017-10-09T00:57:09.229Z,0.00
2017-10-09T00:58:09.220Z,0.00
2017-10-09T00:59:09.210Z,0.00
2017-10-09T01:00:09.197Z,0.00
2017-10-09T01:01:09.186Z,0.00
2017-10-09T01:02:09.174Z,0.00
2017-10-09T01:03:09.162Z,0.00
2017-10-09T01:04:09.151Z,0.00
2017-10-09T01:05:09.142Z,0.00
2017-10-09T01:06:09.130Z,0.00
2017-10-09T01:07:09.118Z,0.00
2017-10-09T01:08:09.108Z,0.00
2017-10-09T01:09:09.098Z,0.00
2017-10-09T01:10:09.085Z,0.00
2017-10-09T01:11:09.073Z,0.00
2017-10-09T01:12:09.064Z,0.00
2017-10-09T01:13:09.055Z,0.00
2017-10-09T01:14:09.041Z,0.00
2017-10-09T01:15:09.030Z,0.00
2017-10-09T01:16:09.023Z,0.00
2017-10-09T01:17:09.007Z,0.00
2017-10-09T01:18:08.997Z,0.00
2017-10-09T01:19:08.986Z,0.00
2017-10-09T01:20:08.975Z,0.00
2017-10-09T01:21:08.969Z,0.00
2017-10-09T01:22:08.953Z,0.00
2017-10-09T01:23:08.940Z,0.00
2017-10-09T01:24:08.927Z,0.00
2017-10-09T01:25:08.918Z,0.00
2017-10-09T01:26:08.908Z,0.00
2017-10-09T01:27:08.896Z,0.00
2017-10-09T01:28:08.886Z,0.00
2017-10-09T01:29:08.874Z,0.00
2017-10-09T01:30:08.862Z,0.00
2017-10-09T01:31:08.852Z,0.00
2017-10-09T01:32:08.840Z,0.00
2017-10-09T01:33:08.828Z,0.00
2017-10-09T01:34:08.820Z,0.00
2017-10-09T01:35:08.809Z,0.00
2017-10-09T01:36:08.805Z,0.00
2017-10-09T01:37:08.792Z,0.00
2017-10-09T01:38:08.775Z,0.00
2017-10-09T01:39:08.764Z,0.00
2017-10-09T01:40:08.751Z,0.00
2017-10-09T01:41:08.742Z,0.00
2017-10-09T01:42:08.731Z,0.00
2017-10-09T01:43:08.720Z,0.00
2017-10-09T01:44:08.710Z,0.00
2017-10-09T01:45:08.698Z,0.00
2017-10-09T01:46:08.687Z,0.00
2017-10-09T01:47:08.678Z,0.00
2017-10-09T01:48:08.666Z,0.00
2017-10-09T01:49:08.656Z,0.00
2017-10-09T01:50:08.643Z,0.00
2017-10-09T01:51:08.634Z,0.00
2017-10-09T01:52:08.623Z,0.00
2017-10-09T01:53:08.612Z,0.00
2017-10-09T01:54:08.600Z,0.00
2017-10-09T01:55:08.588Z,0.00
2017-10-09T01:56:08.578Z,0.00
2017-10-09T01:57:08.566Z,0.00
2017-10-09T01:58:08.558Z,0.00
2017-10-09T01:59:08.546Z,0.00
2017-10-09T02:00:08.534Z,0.00
2017-10-09T02:01:08.523Z,0.00
2017-10-09T02:02:08.514Z,0.00
2017-10-09T02:03:08.504Z,0.00
2017-10-09T02:04:08.491Z,0.00
2017-10-09T02:05:08.481Z,0.00
2017-10-09T02:06:08.471Z,0.00
2017-10-09T02:07:08.459Z,0.00
2017-10-09T02:08:08.460Z,0.00
2017-10-09T02:09:08.436Z,0.00
2017-10-09T02:10:08.443Z,0.00
2017-10-09T02:11:08.416Z,0.00
2017-10-09T02:12:08.402Z,0.00
2017-10-09T02:13:08.392Z,0.00
2017-10-09T02:14:08.384Z,0.00
2017-10-09T02:15:08.372Z,0.00
2017-10-09T02:16:08.359Z,0.00
2017-10-09T02:17:08.348Z,0.00
2017-10-09T02:18:08.339Z,0.00
2017-10-09T02:19:08.327Z,0.00
2017-10-09T02:20:08.319Z,0.00
2017-10-09T02:21:08.304Z,0.00
2017-10-09T02:22:08.294Z,0.00
2017-10-09T02:23:08.287Z,0.00
2017-10-09T02:24:08.274Z,0.00
2017-10-09T02:25:08.261Z,0.00
2017-10-09T02:26:08.252Z,0.00
2017-10-09T02:27:08.238Z,0.00
2017-10-09T02:28:08.230Z,0.00
2017-10-09T02:29:08.217Z,0.00
2017-10-09T02:30:08.213Z,0.00
2017-10-09T02:31:08.198Z,0.00
2017-10-09T02:32:08.194Z,0.00
2017-10-09T02:33:08.177Z,0.00
2017-10-09T02:34:08.164Z,0.00
2017-10-09T02:35:08.154Z,0.00
2017-10-09T02:36:08.144Z,0.00
2017-10-09T02:37:08.129Z,0.00
2017-10-09T02:38:08.118Z,0.00
2017-10-09T02:39:08.109Z,0.00
2017-10-09T02:40:08.098Z,0.00
2017-10-09T02:41:08.085Z,0.00
2017-10-09T02:42:08.075Z,0.00
2017-10-09T02:43:08.064Z,0.00
2017-10-09T02:44:08.052Z,0.00
2017-10-09T02:45:08.042Z,0.00
2017-10-09T02:46:08.031Z,0.00
2017-10-09T02:47:08.021Z,0.00
2017-10-09T02:48:08.006Z,0.00
2017-10-09T02:49:07.999Z,0.00
2017-10-09T02:50:07.985Z,0.00
2017-10-09T02:51:07.975Z,0.00
2017-10-09T02:52:07.965Z,0.00
2017-10-09T02:53:07.951Z,0.00
2017-10-09T02:54:07.939Z,0.00
2017-10-09T02:55:07.930Z,0.00
2017-10-09T02:56:07.918Z,0.00
2017-10-09T02:57:07.906Z,0.00
2017-10-09T02:58:07.898Z,0.00
2017-10-09T02:59:07.887Z,0.00
2017-10-09T03:00:07.873Z,0.00
2017-10-09T03:01:07.867Z,0.00
2017-10-09T03:02:07.852Z,0.00
2017-10-09T03:03:07.840Z,0.00
2017-10-09T03:04:07.831Z,0.00
2017-10-09T03:05:07.819Z,0.00
2017-10-09T03:06:07.808Z,0.00
2017-10-09T03:07:07.799Z,0.00
2017-10-09T03:08:07.785Z,0.00
2017-10-09T03:09:07.774Z,0.00
2017-10-09T03:10:07.764Z,0.00
2017-10-09T03:11:07.756Z,0.00
2017-10-09T03:12:07.743Z,0.00
2017-10-09T03:13:07.735Z,0.00
2017-10-09T03:14:07.719Z,0.00
2017-10-09T03:15:07.709Z,0.00
2017-10-09T03:16:07.695Z,0.00
2017-10-09T03:17:07.685Z,0.00
2017-10-09T03:18:07.673Z,0.00
2017-10-09T03:19:07.662Z,0.00
2017-10-09T03:20:07.652Z,0.00
2017-10-09T03:21:07.639Z,0.00
2017-10-09T03:22:07.629Z,0.00
2017-10-09T03:23:07.619Z,0.00
2017-10-09T03:24:07.605Z,0.00
2017-10-09T03:25:07.595Z,0.00
2017-10-09T03:26:07.599Z,0.00
2017-10-09T03:27:07.581Z,0.00
2017-10-09T03:28:07.561Z,0.00
2017-10-09T03:29:07.551Z,0.00
2017-10-09T03:30:07.540Z,0.00
2017-10-09T03:31:07.531Z,0.00
2017-10-09T03:32:07.516Z,0.00
2017-10-09T03:33:07.507Z,0.00
2017-10-09T03:34:07.496Z,0.00
2017-10-09T03:35:07.483Z,0.00
2017-10-09T03:36:07.471Z,0.00
2017-10-09T03:37:07.462Z,0.00
2017-10-09T03:38:07.449Z,0.00
2017-10-09T03:39:07.439Z,0.00
2017-10-09T03:40:07.425Z,0.00
2017-10-09T03:41:07.416Z,0.00
2017-10-09T03:42:07.404Z,0.00
2017-10-09T03:43:07.393Z,0.00
2017-10-09T03:44:07.381Z,0.00
2017-10-09T03:45:07.374Z,0.00
2017-10-09T03:46:07.361Z,0.00
2017-10-09T03:47:07.354Z,0.00
2017-10-09T03:48:07.338Z,0.00
2017-10-09T03:49:07.323Z,0.00
2017-10-09T03:50:07.312Z,0.00
2017-10-09T03:51:07.301Z,0.00
2017-10-09T03:52:07.290Z,0.00
2017-10-09T03:53:07.279Z,0.00
2017-10-09T03:54:07.268Z,0.00
2017-10-09T03:55:07.258Z,0.00
2017-10-09T03:56:07.253Z,0.00
2017-10-09T03:57:07.233Z,0.00
2017-10-09T03:58:07.227Z,0.00
2017-10-09T03:59:07.211Z,0.00
2017-10-09T04:00:07.198Z,0.00
2017-10-09T04:01:07.191Z,0.00
2017-10-09T04:02:07.175Z,0.00
2017-10-09T04:03:07.165Z,0.00
2017-10-09T04:04:07.152Z,0.00
2017-10-09T04:05:07.145Z,0.00
2017-10-09T04:06:07.133Z,0.00
2017-10-09T04:07:07.123Z,0.00
2017-10-09T04:08:07.108Z,0.00
2017-10-09T04:09:07.095Z,0.00
2017-10-09T04:10:07.085Z,0.00
2017-10-09T04:11:07.080Z,0.00
2017-10-09T04:12:07.062Z,0.00
2017-10-09T04:13:07.048Z,0.00
2017-10-09T04:14:07.041Z,0.00
2017-10-09T04:15:07.028Z,0.00
2017-10-09T04:16:07.015Z,0.00
2017-10-09T04:17:07.003Z,0.00
2017-10-09T04:18:06.997Z,0.00
2017-10-09T04:19:06.983Z,0.00
2017-10-09T04:20:06.971Z,0.00
2017-10-09T04:21:06.958Z,0.00
2017-10-09T04:22:06.948Z,0.00
2017-10-09T04:23:06.936Z,0.00
2017-10-09T04:24:06.923Z,0.00
2017-10-09T04:25:06.916Z,0.00
2017-10-09T04:26:06.902Z,0.00
2017-10-09T04:27:06.893Z,0.00
2017-10-09T04:28:06.878Z,0.00
2017-10-09T04:29:06.888Z,0.00
2017-10-09T04:30:06.855Z,0.00
2017-10-09T04:31:06.844Z,0.00
2017-10-09T04:32:06.833Z,0.00
2017-10-09T04:33:06.820Z,0.00
2017-10-09T04:34:06.813Z,0.00
2017-10-09T04:35:06.798Z,0.00
2017-10-09T04:36:06.789Z,0.00
2017-10-09T04:37:06.776Z,0.00
2017-10-09T04:38:06.765Z,0.00
2017-10-09T04:39:06.753Z,0.00
2017-10-09T04:40:06.741Z,0.00
2017-10-09T04:41:06.729Z,0.00
2017-10-09T04:42:06.724Z,0.00
2017-10-09T04:43:06.710Z,0.00
2017-10-09T04:44:06.698Z,0.00
2017-10-09T04:45:06.684Z,0.00
2017-10-09T04:46:06.673Z,0.00
2017-10-09T04:47:06.662Z,0.00
2017-10-09T04:48:06.650Z,0.00
2017-10-09T04:49:06.637Z,0.00
2017-10-09T04:50:06.628Z,0.00
2017-10-09T04:51:06.624Z,0.00
2017-10-09T04:52:06.605Z,0.00
2017-10-09T04:53:06.593Z,0.00
2017-10-09T04:54:06.582Z,0.00
2017-10-09T04:55:06.574Z,0.00
2017-10-09T04:56:06.561Z,0.00
2017-10-09T04:57:06.568Z,0.00
2017-10-09T04:58:06.538Z,0.00
2017-10-09T04:59:06.529Z,0.00
2017-10-09T05:00:06.514Z,0.00
2017-10-09T05:01:06.522Z,0.00
2017-10-09T05:02:06.491Z,0.00
2017-10-09T05:03:06.482Z,0.00
2017-10-09T05:04:06.469Z,0.00
2017-10-09T05:05:06.460Z,0.00
2017-10-09T05:06:06.446Z,0.00
2017-10-09T05:07:06.435Z,0.00
2017-10-09T05:08:06.422Z,0.00
2017-10-09T05:09:06.413Z,0.00
2017-10-09T05:10:06.401Z,4.00
2017-10-09T05:11:06.390Z,0.00
2017-10-09T05:12:06.376Z,0.00
2017-10-09T05:13:06.369Z,4.00
2017-10-09T05:14:06.358Z,0.00
2017-10-09T05:15:06.345Z,4.00
2017-10-09T05:16:06.332Z,4.00
2017-10-09T05:17:06.322Z,4.00
2017-10-09T05:18:06.311Z,4.00
2017-10-09T05:19:06.300Z,4.00
2017-10-09T05:20:06.289Z,8.00
2017-10-09T05:21:06.275Z,8.00
2017-10-09T05:22:06.268Z,8.00
2017-10-09T05:23:06.253Z,16.00
2017-10-09T05:24:06.243Z,16.00
2017-10-09T05:25:06.231Z,16.00
2017-10-09T05:26:06.219Z,24.00
2017-10-09T05:27:06.208Z,24.00
2017-10-09T05:28:06.197Z,28.00
2017-10-09T05:29:06.188Z,36.00
2017-10-09T05:30:06.177Z,40.00
2017-10-09T05:31:06.162Z,48.00
2017-10-09T05:32:06.155Z,56.00
2017-10-09T05:33:06.143Z,64.00
2017-10-09T05:34:06.128Z,72.00
2017-10-09T05:35:06.119Z,84.00
2017-10-09T05:36:06.106Z,92.00
2017-10-09T05:37:06.099Z,104.00
2017-10-09T05:38:06.084Z,120.00
2017-10-09T05:39:06.074Z,140.00
2017-10-09T05:40:06.068Z,156.00
2017-10-09T05:41:06.055Z,180.00
2017-10-09T05:42:06.040Z,200.00
2017-10-09T05:43:06.028Z,232.00
2017-10-09T05:44:06.015Z,268.00
2017-10-09T05:45:06.010Z,304.00
2017-10-09T05:46:05.994Z,344.00
2017-10-09T05:47:05.990Z,384.00
2017-10-09T05:48:05.968Z,420.00
2017-10-09T05:49:05.963Z,460.00
2017-10-09T05:50:05.947Z,500.00
2017-10-09T05:51:05.937Z,536.00
2017-10-09T05:52:05.926Z,572.00
2017-10-09T05:53:05.912Z,608.00
2017-10-09T05:54:05.903Z,644.00
2017-10-09T05:55:05.895Z,676.00
2017-10-09T05:56:05.881Z,708.00
2017-10-09T05:57:05.872Z,736.00
2017-10-09T05:58:05.861Z,776.00
2017-10-09T05:59:05.852Z,816.00
2017-10-09T06:00:05.835Z,852.00
2017-10-09T06:01:05.822Z,884.00
2017-10-09T06:02:05.818Z,916.00
2017-10-09T06:03:05.807Z,944.00
2017-10-09T06:04:05.790Z,972.00
2017-10-09T06:05:05.778Z,1000.00
2017-10-09T06:06:05.765Z,1032.00
2017-10-09T06:07:05.758Z,1064.00
2017-10-09T06:08:05.764Z,1112.00
2017-10-09T06:09:05.743Z,1188.00
2017-10-09T06:10:05.722Z,1276.00
2017-10-09T06:11:05.713Z,1372.00
2017-10-09T06:12:05.710Z,1464.00
2017-10-09T06:13:05.692Z,1540.00
2017-10-09T06:14:05.677Z,1596.00
2017-10-09T06:15:05.665Z,1652.00
2017-10-09T06:16:05.655Z,1684.00
2017-10-09T06:17:05.642Z,1704.00
2017-10-09T06:18:05.634Z,1724.00
2017-10-09T06:19:05.621Z,1772.00
2017-10-09T06:20:05.608Z,1920.00
2017-10-09T06:21:05.598Z,2100.00
2017-10-09T06:22:05.586Z,2236.00
2017-10-09T06:23:05.575Z,2384.00
2017-10-09T06:24:05.571Z,2536.00
2017-10-09T06:25:05.552Z,2588.00
2017-10-09T06:26:05.544Z,2620.00
2017-10-09T06:27:05.530Z,2704.00
2017-10-09T06:28:05.518Z,2724.00
2017-10-09T06:29:05.510Z,2644.00
2017-10-09T06:30:05.497Z,2548.00
2017-10-09T06:31:05.485Z,2448.00
2017-10-09T06:32:05.476Z,2380.00
2017-10-09T06:33:05.464Z,2316.00
2017-10-09T06:34:05.474Z,2292.00
2017-10-09T06:35:05.472Z,2292.00
2017-10-09T06:36:05.434Z,2292.00
2017-10-09T06:37:05.425Z,2308.00
2017-10-09T06:38:05.411Z,2308.00
2017-10-09T06:39:05.400Z,2316.00
2017-10-09T06:40:05.388Z,2376.00
2017-10-09T06:41:05.378Z,2452.00
2017-10-09T06:42:05.366Z,2532.00
2017-10-09T06:43:05.371Z,2664.00
2017-10-09T06:44:05.373Z,2780.00
2017-10-09T06:45:05.330Z,2824.00
2017-10-09T06:46:05.322Z,2856.00
2017-10-09T06:47:05.309Z,2952.00
2017-10-09T06:48:05.299Z,3156.00
2017-10-09T06:49:05.290Z,3332.00
2017-10-09T06:50:05.277Z,3468.00
2017-10-09T06:51:05.265Z,3528.00
2017-10-09T06:52:05.259Z,3528.00
2017-10-09T06:53:05.246Z,3476.00
2017-10-09T06:54:05.237Z,3436.00
2017-10-09T06:55:05.222Z,3412.00
2017-10-09T06:56:05.211Z,3444.00
2017-10-09T06:57:05.203Z,3560.00
2017-10-09T06:58:05.192Z,3756.00
2017-10-09T06:59:05.179Z,3964.00
2017-10-09T07:00:05.201Z,4144.00
2017-10-09T07:01:05.161Z,4296.00
2017-10-09T07:02:05.150Z,4488.00
2017-10-09T07:03:05.139Z,4704.00
2017-10-09T07:04:05.127Z,4964.00
2017-10-09T07:05:05.115Z,5228.00
2017-10-09T07:06:05.104Z,5396.00
2017-10-09T07:07:05.093Z,5524.00
2017-10-09T07:08:05.082Z,5624.00
2017-10-09T07:09:05.075Z,5668.00
2017-10-09T07:10:05.071Z,5744.00
2017-10-09T07:11:05.053Z,5844.00
2017-10-09T07:12:05.040Z,5904.00
2017-10-09T07:13:05.029Z,6044.00
2017-10-09T07:14:05.020Z,6100.00
2017-10-09T07:15:05.009Z,6156.00
2017-10-09T07:16:04.998Z,6296.00
2017-10-09T07:17:04.989Z,6300.00
2017-10-09T07:18:04.976Z,6200.00
2017-10-09T07:19:04.968Z,6240.00
2017-10-09T07:20:04.956Z,6212.00
2017-10-09T07:21:04.951Z,6132.00
2017-10-09T07:22:04.935Z,6064.00
2017-10-09T07:23:04.925Z,5900.00
2017-10-09T07:24:04.914Z,5564.00
2017-10-09T07:25:04.904Z,5388.00
2017-10-09T07:26:04.893Z,5296.00
2017-10-09T07:27:04.883Z,5476.00
2017-10-09T07:28:04.872Z,5744.00
2017-10-09T07:29:04.862Z,5984.00
2017-10-09T07:30:04.856Z,6392.00
2017-10-09T07:31:04.844Z,6872.00
2017-10-09T07:32:04.831Z,7468.00
2017-10-09T07:33:04.824Z,7980.00
2017-10-09T07:34:04.809Z,8508.00
2017-10-09T07:35:04.801Z,8808.00
2017-10-09T07:36:04.789Z,8936.00
2017-10-09T07:37:04.780Z,8840.00
2017-10-09T07:38:04.770Z,8488.00
2017-10-09T07:39:04.760Z,8184.00
2017-10-09T07:40:04.750Z,8356.00
2017-10-09T07:41:04.738Z,8728.00
2017-10-09T07:42:04.729Z,9280.00
2017-10-09T07:43:04.720Z,9744.00
2017-10-09T07:44:04.709Z,9700.00
2017-10-09T07:45:04.700Z,9440.00
2017-10-09T07:46:04.688Z,9144.00
2017-10-09T07:47:04.678Z,9112.00
2017-10-09T07:48:04.667Z,9056.00
2017-10-09T07:49:04.659Z,8280.00
2017-10-09T07:50:04.652Z,7688.00
2017-10-09T07:51:04.640Z,7804.00
2017-10-09T07:52:04.628Z,8388.00
2017-10-09T07:53:04.620Z,9724.00
2017-10-09T07:54:04.611Z,10288.00
2017-10-09T07:55:04.602Z,10792.00
2017-10-09T07:56:04.590Z,11116.00
2017-10-09T07:57:04.581Z,11508.00
2017-10-09T07:58:04.590Z,12124.00
2017-10-09T07:59:04.583Z,12360.00
2017-10-09T08:00:04.580Z,12208.00
2017-10-09T08:01:04.565Z,12240.00
2017-10-09T08:02:04.532Z,12336.00
2017-10-09T08:03:04.646Z,12544.00
2017-10-09T08:04:04.511Z,12544.00
2017-10-09T08:05:04.503Z,12624.00
2017-10-09T08:06:04.495Z,12900.00
2017-10-09T08:07:04.487Z,13112.00
2017-10-09T08:08:04.472Z,13460.00
2017-10-09T08:09:04.472Z,13916.00
2017-10-09T08:10:04.458Z,14344.00
2017-10-09T08:11:04.446Z,14500.00
2017-10-09T08:12:04.436Z,14452.00
2017-10-09T08:13:04.426Z,13984.00
2017-10-09T08:14:04.419Z,14012.00
2017-10-09T08:15:04.410Z,13704.00
2017-10-09T08:16:04.403Z,13332.00
2017-10-09T08:17:04.390Z,13748.00
2017-10-09T08:18:04.381Z,14364.00
2017-10-09T08:19:04.375Z,14540.00
2017-10-09T08:20:04.363Z,13588.00
2017-10-09T08:21:04.352Z,12204.00
2017-10-09T08:22:04.350Z,10572.00
2017-10-09T08:23:04.338Z,9696.00
2017-10-09T08:24:04.326Z,8968.00
2017-10-09T08:25:04.319Z,8888.00
2017-10-09T08:26:04.310Z,9648.00
2017-10-09T08:27:04.303Z,10084.00
2017-10-09T08:28:04.292Z,10256.00
2017-10-09T08:29:04.284Z,10412.00
2017-10-09T08:30:04.273Z,10724.00
2017-10-09T08:31:04.265Z,11180.00
2017-10-09T08:32:04.259Z,11276.00
2017-10-09T08:33:04.248Z,10624.00
2017-10-09T08:34:04.240Z,10008.00
2017-10-09T08:35:04.230Z,10228.00
2017-10-09T08:36:04.226Z,10712.00
2017-10-09T08:37:04.213Z,10620.00
2017-10-09T08:38:04.206Z,10100.00
2017-10-09T08:39:04.195Z,9904.00
2017-10-09T08:40:04.186Z,9872.00
2017-10-09T08:41:04.177Z,10360.00
2017-10-09T08:42:04.168Z,10676.00
2017-10-09T08:43:04.169Z,10828.00
2017-10-09T08:44:04.151Z,10872.00
2017-10-09T08:45:04.140Z,10340.00
2017-10-09T08:46:04.134Z,9416.00
2017-10-09T08:47:04.129Z,8364.00
2017-10-09T08:48:04.118Z,7568.00
2017-10-09T08:49:04.108Z,7252.00
2017-10-09T08:50:04.100Z,7000.00
2017-10-09T08:51:04.092Z,6592.00
2017-10-09T08:52:04.085Z,6800.00
2017-10-09T08:53:04.073Z,7344.00
2017-10-09T08:54:04.065Z,8128.00
2017-10-09T08:55:04.057Z,8900.00
2017-10-09T08:56:04.049Z,9236.00
2017-10-09T08:57:04.039Z,9208.00
2017-10-09T08:58:04.032Z,9184.00
2017-10-09T08:59:04.025Z,8996.00
2017-10-09T09:00:04.013Z,8504.00
2017-10-09T09:01:04.003Z,7908.00
2017-10-09T09:02:03.998Z,8044.00
2017-10-09T09:03:03.989Z,8032.00
2017-10-09T09:04:03.977Z,8060.00
2017-10-09T09:05:03.968Z,8524.00
2017-10-09T09:06:03.960Z,8944.00
2017-10-09T09:07:03.953Z,9332.00
2017-10-09T09:08:03.943Z,9240.00
2017-10-09T09:09:03.933Z,9360.00
2017-10-09T09:10:03.927Z,9732.00
2017-10-09T09:11:03.915Z,10300.00
2017-10-09T09:12:03.907Z,10672.00
2017-10-09T09:13:03.899Z,10780.00
2017-10-09T09:14:03.904Z,10760.00
2017-10-09T09:15:03.882Z,10608.00
2017-10-09T09:16:03.870Z,10524.00
2017-10-09T09:17:03.863Z,10628.00
2017-10-09T09:18:03.855Z,10608.00
2017-10-09T09:19:03.856Z,11228.00
2017-10-09T09:20:03.837Z,12068.00
2017-10-09T09:21:03.834Z,11968.00
2017-10-09T09:22:03.821Z,11608.00
2017-10-09T09:23:03.811Z,11856.00
2017-10-09T09:24:03.807Z,12628.00
2017-10-09T09:25:03.795Z,13344.00
2017-10-09T09:26:03.788Z,13392.00
2017-10-09T09:27:03.780Z,13092.00
2017-10-09T09:28:03.768Z,12840.00
2017-10-09T09:29:03.761Z,12760.00
2017-10-09T09:30:03.753Z,12900.00
2017-10-09T09:31:03.745Z,13328.00
2017-10-09T09:32:03.737Z,13512.00
2017-10-09T09:33:03.730Z,13476.00
2017-10-09T09:34:03.722Z,13212.00
2017-10-09T09:35:03.776Z,13324.00
2017-10-09T09:36:03.710Z,13620.00
2017-10-09T09:37:03.699Z,14784.00
2017-10-09T09:38:03.686Z,16872.00
2017-10-09T09:39:03.677Z,19136.00
2017-10-09T09:40:03.670Z,20864.00
2017-10-09T09:41:03.663Z,21152.00
2017-10-09T09:42:03.658Z,20512.00
2017-10-09T09:43:03.648Z,19904.00
2017-10-09T09:44:03.637Z,18848.00
2017-10-09T09:45:03.633Z,18464.00
2017-10-09T09:46:03.621Z,21056.00
2017-10-09T09:47:03.617Z,26688.00
2017-10-09T09:48:03.609Z,20704.00
2017-10-09T09:49:03.600Z,25184.00
2017-10-09T09:50:03.590Z,22528.00
2017-10-09T09:51:03.582Z,27648.00
2017-10-09T09:52:03.578Z,34016.00
2017-10-09T09:53:03.567Z,24256.00
2017-10-09T09:54:03.579Z,27296.00
2017-10-09T09:55:03.581Z,29056.00
2017-10-09T09:56:03.545Z,34272.00
2017-10-09T09:57:03.539Z,44032.00
2017-10-09T09:58:03.532Z,46112.00
2017-10-09T09:59:03.534Z,30112.00
2017-10-09T10:00:03.516Z,38272.00
2017-10-09T10:01:03.510Z,29632.00
2017-10-09T10:02:03.503Z,21952.00
2017-10-09T10:03:03.496Z,19776.00
2017-10-09T10:04:03.490Z,18144.00
2017-10-09T10:05:03.483Z,17568.00
2017-10-09T10:06:03.476Z,17568.00
2017-10-09T10:07:03.471Z,15808.00
2017-10-09T10:08:03.466Z,11888.00
2017-10-09T10:09:03.460Z,10940.00
2017-10-09T10:10:03.454Z,9940.00
2017-10-09T10:11:03.447Z,9608.00
2017-10-09T10:12:03.459Z,8708.00
2017-10-09T10:13:03.431Z,8584.00
2017-10-09T10:14:03.426Z,7936.00
2017-10-09T10:15:03.418Z,7176.00
2017-10-09T10:16:03.412Z,7820.00
2017-10-09T10:17:03.406Z,8872.00
2017-10-09T10:18:03.401Z,10472.00
2017-10-09T10:19:03.393Z,11940.00
2017-10-09T10:20:03.388Z,13052.00
2017-10-09T10:21:03.378Z,14548.00
2017-10-09T10:22:03.377Z,15512.00
2017-10-09T10:23:03.369Z,16588.00
2017-10-09T10:24:03.361Z,16800.00
2017-10-09T10:25:03.352Z,16400.00
2017-10-09T10:26:03.345Z,16520.00
2017-10-09T10:27:03.343Z,15520.00
2017-10-09T10:28:03.331Z,14436.00
2017-10-09T10:29:03.325Z,15184.00
2017-10-09T10:30:03.322Z,15856.00
2017-10-09T10:31:03.313Z,15128.00
2017-10-09T10:32:03.306Z,14712.00
2017-10-09T10:33:03.300Z,15148.00
2017-10-09T10:34:03.295Z,15132.00
2017-10-09T10:35:03.285Z,14396.00
2017-10-09T10:36:03.284Z,13644.00
2017-10-09T10:37:03.274Z,12408.00
2017-10-09T10:38:03.264Z,13724.00
2017-10-09T10:39:03.258Z,13132.00
2017-10-09T10:40:03.252Z,12208.00
2017-10-09T10:41:03.244Z,11272.00
2017-10-09T10:42:03.239Z,10720.00
2017-10-09T10:43:03.232Z,10364.00
2017-10-09T10:44:03.225Z,10136.00
2017-10-09T10:45:03.216Z,10048.00
2017-10-09T10:46:03.210Z,10124.00
2017-10-09T10:47:03.207Z,10432.00
2017-10-09T10:48:03.198Z,11412.00
2017-10-09T10:49:03.191Z,13132.00
2017-10-09T10:50:03.189Z,12808.00
2017-10-09T10:51:03.178Z,10496.00
2017-10-09T10:52:03.167Z,10872.00
2017-10-09T10:53:03.163Z,12304.00
2017-10-09T10:54:03.157Z,12384.00
2017-10-09T10:55:03.149Z,14988.00
2017-10-09T10:56:03.142Z,15748.00
2017-10-09T10:57:03.135Z,16040.00
2017-10-09T10:58:03.128Z,13336.00
2017-10-09T10:59:03.125Z,11700.00
2017-10-09T11:00:03.116Z,12084.00
2017-10-09T11:01:03.108Z,15168.00
2017-10-09T11:02:03.111Z,16260.00
2017-10-09T11:03:03.096Z,13844.00
2017-10-09T11:04:03.089Z,12492.00
2017-10-09T11:05:03.083Z,14104.00
2017-10-09T11:06:03.078Z,14348.00
2017-10-09T11:07:03.071Z,17248.00
2017-10-09T11:08:03.062Z,19840.00
2017-10-09T11:09:03.051Z,23552.00
2017-10-09T11:10:03.047Z,21184.00
2017-10-09T11:11:03.040Z,18976.00
2017-10-09T11:12:03.031Z,21504.00
2017-10-09T11:13:03.024Z,19168.00
2017-10-09T11:14:03.040Z,16816.00
2017-10-09T11:15:03.013Z,16520.00
2017-10-09T11:16:03.005Z,15900.00
2017-10-09T11:17:03.000Z,15304.00
2017-10-09T11:18:02.993Z,16120.00
2017-10-09T11:19:02.984Z,15428.00
2017-10-09T11:20:02.982Z,14480.00
2017-10-09T11:21:02.973Z,14104.00
2017-10-09T11:22:02.965Z,14664.00
2017-10-09T11:23:02.960Z,15908.00
2017-10-09T11:24:02.958Z,15032.00
2017-10-09T11:25:02.947Z,14848.00
2017-10-09T11:26:02.941Z,15872.00
2017-10-09T11:27:02.932Z,17088.00
2017-10-09T11:28:02.928Z,14144.00
2017-10-09T11:29:02.921Z,12180.00
2017-10-09T11:30:02.922Z,12248.00
2017-10-09T11:31:02.908Z,11104.00
2017-10-09T11:32:02.902Z,10084.00
2017-10-09T11:33:02.902Z,11468.00
2017-10-09T11:34:02.890Z,13700.00
2017-10-09T11:35:02.884Z,13072.00
2017-10-09T11:36:02.883Z,11588.00
2017-10-09T11:37:02.867Z,12152.00
2017-10-09T11:38:02.863Z,13900.00
2017-10-09T11:39:02.860Z,15208.00
2017-10-09T11:40:02.851Z,15476.00
2017-10-09T11:41:02.842Z,14604.00
2017-10-09T11:42:02.837Z,11440.00
2017-10-09T11:43:02.830Z,10008.00
2017-10-09T11:44:02.823Z,10968.00
2017-10-09T11:45:02.816Z,13288.00
2017-10-09T11:46:02.818Z,14696.00
2017-10-09T11:47:02.807Z,14688.00
2017-10-09T11:48:02.799Z,15532.00
2017-10-09T11:49:02.790Z,17600.00
2017-10-09T11:50:02.790Z,16248.00
2017-10-09T11:51:02.784Z,14856.00
2017-10-09T11:52:02.771Z,16172.00
2017-10-09T11:53:02.767Z,18880.00
2017-10-09T11:54:02.759Z,23360.00
2017-10-09T11:55:02.753Z,22624.00
2017-10-09T11:56:02.746Z,23264.00
2017-10-09T11:57:02.741Z,21088.00
2017-10-09T11:58:02.734Z,17856.00
2017-10-09T11:59:02.727Z,18592.00
2017-10-09T12:00:02.724Z,17056.00
2017-10-09T12:01:02.714Z,12580.00
2017-10-09T12:02:02.708Z,12720.00
2017-10-09T12:03:02.702Z,14764.00
2017-10-09T12:04:02.697Z,15564.00
2017-10-09T12:05:02.693Z,15088.00
2017-10-09T12:06:02.688Z,13532.00
2017-10-09T12:07:02.682Z,13052.00
2017-10-09T12:08:02.672Z,13624.00
2017-10-09T12:09:02.668Z,12928.00
2017-10-09T12:10:02.661Z,13424.00
2017-10-09T12:11:02.656Z,15404.00
2017-10-09T12:12:02.652Z,16420.00
2017-10-09T12:13:02.643Z,16544.00
2017-10-09T12:14:02.636Z,16260.00
2017-10-09T12:15:02.632Z,12768.00
2017-10-09T12:16:02.624Z,10988.00
2017-10-09T12:17:02.619Z,11152.00
2017-10-09T12:18:02.615Z,11380.00
2017-10-09T12:19:02.636Z,10356.00
2017-10-09T12:20:02.605Z,9280.00
2017-10-09T12:21:02.595Z,9376.00
2017-10-09T12:22:02.612Z,10492.00
2017-10-09T12:23:02.583Z,10716.00
2017-10-09T12:24:02.589Z,10352.00
2017-10-09T12:25:02.572Z,9656.00
2017-10-09T12:26:02.582Z,10496.00
2017-10-09T12:27:02.582Z,10780.00
2017-10-09T12:28:02.575Z,10680.00
2017-10-09T12:29:02.545Z,10052.00